sensor_id;sensor_type;location;lat;lon;timestamp;temperature;humidity
51613;DHT22;37694;51.748;14.326;2023-07-20T00:01:04;21.70;57.10
51613;DHT22;37694;51.748;14.326;2023-07-20T00:03:29;21.80;56.90
51613;DHT22;37694;51.748;14.326;2023-07-20T00:05:55;21.70;57.00
51613;DHT22;37694;51.748;14.326;2023-07-20T00:08:21;21.70;57.10
51613;DHT22;37694;51.748;14.326;2023-07-20T00:10:46;21.70;57.00
51613;DHT22;37694;51.748;14.326;2023-07-20T00:13:12;21.70;57.00
51613;DHT22;37694;51.748;14.326;2023-07-20T00:15:38;21.70;57.00
51613;DHT22;37694;51.748;14.326;2023-07-20T00:18:04;21.70;57.10
51613;DHT22;37694;51.748;14.326;2023-07-20T00:20:30;21.70;57.10
51613;DHT22;37694;51.748;14.326;2023-07-20T00:22:56;21.70;57.10
51613;DHT22;37694;51.748;14.326;2023-07-20T00:25:24;21.70;57.10
51613;DHT22;37694;51.748;14.326;2023-07-20T00:27:49;21.70;57.10
51613;DHT22;37694;51.748;14.326;2023-07-20T00:30:16;21.70;57.20
51613;DHT22;37694;51.748;14.326;2023-07-20T00:32:45;21.70;57.40
51613;DHT22;37694;51.748;14.326;2023-07-20T00:35:11;21.60;57.30
51613;DHT22;37694;51.748;14.326;2023-07-20T00:37:38;21.60;57.30
51613;DHT22;37694;51.748;14.326;2023-07-20T00:40:04;21.60;57.30
51613;DHT22;37694;51.748;14.326;2023-07-20T00:42:31;21.60;57.30
51613;DHT22;37694;51.748;14.326;2023-07-20T00:44:57;21.60;57.40
51613;DHT22;37694;51.748;14.326;2023-07-20T00:47:22;21.60;57.50
51613;DHT22;37694;51.748;14.326;2023-07-20T00:49:48;21.60;57.50
51613;DHT22;37694;51.748;14.326;2023-07-20T00:52:15;21.60;57.50
51613;DHT22;37694;51.748;14.326;2023-07-20T00:54:42;21.60;57.50
51613;DHT22;37694;51.748;14.326;2023-07-20T00:57:08;21.60;58.30
51613;DHT22;37694;51.748;14.326;2023-07-20T00:59:34;21.60;57.50
51613;DHT22;37694;51.748;14.326;2023-07-20T01:02:01;21.60;57.60
51613;DHT22;37694;51.748;14.326;2023-07-20T01:04:27;21.60;57.60
51613;DHT22;37694;51.748;14.326;2023-07-20T01:07:21;21.60;57.70
51613;DHT22;37694;51.748;14.326;2023-07-20T01:12:46;21.60;57.60
51613;DHT22;37694;51.748;14.326;2023-07-20T01:15:12;21.60;57.60
51613;DHT22;37694;51.748;14.326;2023-07-20T01:17:38;21.60;57.60
51613;DHT22;37694;51.748;14.326;2023-07-20T01:20:08;21.60;57.70
51613;DHT22;37694;51.748;14.326;2023-07-20T01:23:08;21.60;57.50
51613;DHT22;37694;51.748;14.326;2023-07-20T01:31:26;21.60;57.60
51613;DHT22;37694;51.748;14.326;2023-07-20T01:33:56;21.50;57.30
51613;DHT22;37694;51.748;14.326;2023-07-20T01:36:24;21.60;57.70
51613;DHT22;37694;51.748;14.326;2023-07-20T01:38:53;21.60;57.70
51613;DHT22;37694;51.748;14.326;2023-07-20T01:41:20;21.50;57.70
51613;DHT22;37694;51.748;14.326;2023-07-20T01:43:46;21.50;57.70
51613;DHT22;37694;51.748;14.326;2023-07-20T01:46:12;21.50;57.60
51613;DHT22;37694;51.748;14.326;2023-07-20T01:48:38;21.60;57.70
51613;DHT22;37694;51.748;14.326;2023-07-20T01:51:04;21.50;57.60
51613;DHT22;37694;51.748;14.326;2023-07-20T01:53:32;21.50;57.80
51613;DHT22;37694;51.748;14.326;2023-07-20T01:55:58;21.50;57.90
51613;DHT22;37694;51.748;14.326;2023-07-20T01:58:24;21.60;58.00
51613;DHT22;37694;51.748;14.326;2023-07-20T02:00:50;21.50;57.90
51613;DHT22;37694;51.748;14.326;2023-07-20T02:03:15;21.50;57.80
51613;DHT22;37694;51.748;14.326;2023-07-20T02:05:44;21.50;58.10
51613;DHT22;37694;51.748;14.326;2023-07-20T02:08:10;21.50;58.10
51613;DHT22;37694;51.748;14.326;2023-07-20T02:10:37;21.50;58.00
51613;DHT22;37694;51.748;14.326;2023-07-20T02:13:03;21.50;58.00
51613;DHT22;37694;51.748;14.326;2023-07-20T02:15:29;21.50;57.90
51613;DHT22;37694;51.748;14.326;2023-07-20T02:17:55;21.50;57.90
51613;DHT22;37694;51.748;14.326;2023-07-20T02:20:20;21.50;57.90
51613;DHT22;37694;51.748;14.326;2023-07-20T02:22:46;21.50;57.90
51613;DHT22;37694;51.748;14.326;2023-07-20T02:25:12;21.50;58.00
51613;DHT22;37694;51.748;14.326;2023-07-20T02:27:38;21.50;57.90
51613;DHT22;37694;51.748;14.326;2023-07-20T02:30:04;21.50;57.90
51613;DHT22;37694;51.748;14.326;2023-07-20T02:32:30;21.50;57.90
51613;DHT22;37694;51.748;14.326;2023-07-20T02:34:57;21.40;58.10
51613;DHT22;37694;51.748;14.326;2023-07-20T02:37:23;21.40;58.10
51613;DHT22;37694;51.748;14.326;2023-07-20T02:39:49;21.40;58.20
51613;DHT22;37694;51.748;14.326;2023-07-20T02:42:14;21.40;58.20
51613;DHT22;37694;51.748;14.326;2023-07-20T02:44:40;21.40;58.10
51613;DHT22;37694;51.748;14.326;2023-07-20T02:47:06;21.40;58.00
51613;DHT22;37694;51.748;14.326;2023-07-20T02:49:31;21.40;58.00
51613;DHT22;37694;51.748;14.326;2023-07-20T02:51:57;21.40;58.10
51613;DHT22;37694;51.748;14.326;2023-07-20T02:54:23;21.40;58.10
51613;DHT22;37694;51.748;14.326;2023-07-20T02:56:49;21.40;58.20
51613;DHT22;37694;51.748;14.326;2023-07-20T02:59:14;21.40;58.10
51613;DHT22;37694;51.748;14.326;2023-07-20T03:01:40;21.40;58.10
51613;DHT22;37694;51.748;14.326;2023-07-20T03:04:08;21.40;58.20
51613;DHT22;37694;51.748;14.326;2023-07-20T03:06:35;21.40;58.30
51613;DHT22;37694;51.748;14.326;2023-07-20T03:09:02;21.40;58.40
51613;DHT22;37694;51.748;14.326;2023-07-20T03:11:27;21.40;58.30
51613;DHT22;37694;51.748;14.326;2023-07-20T03:13:53;21.40;58.30
51613;DHT22;37694;51.748;14.326;2023-07-20T03:16:20;21.40;58.30
51613;DHT22;37694;51.748;14.326;2023-07-20T03:18:46;21.40;58.40
51613;DHT22;37694;51.748;14.326;2023-07-20T03:21:12;21.40;58.40
51613;DHT22;37694;51.748;14.326;2023-07-20T03:23:39;21.40;58.40
51613;DHT22;37694;51.748;14.326;2023-07-20T03:26:05;21.30;58.40
51613;DHT22;37694;51.748;14.326;2023-07-20T03:28:30;21.30;58.40
51613;DHT22;37694;51.748;14.326;2023-07-20T03:30:57;21.30;58.40
51613;DHT22;37694;51.748;14.326;2023-07-20T03:33:26;21.30;58.20
51613;DHT22;37694;51.748;14.326;2023-07-20T03:35:51;21.30;58.50
51613;DHT22;37694;51.748;14.326;2023-07-20T03:38:18;21.30;58.50
51613;DHT22;37694;51.748;14.326;2023-07-20T03:40:54;21.30;58.60
51613;DHT22;37694;51.748;14.326;2023-07-20T03:43:25;21.30;58.50
51613;DHT22;37694;51.748;14.326;2023-07-20T03:45:51;21.30;58.50
51613;DHT22;37694;51.748;14.326;2023-07-20T03:48:19;21.30;58.50
51613;DHT22;37694;51.748;14.326;2023-07-20T03:50:46;21.30;58.50
51613;DHT22;37694;51.748;14.326;2023-07-20T03:53:12;21.30;58.40
51613;DHT22;37694;51.748;14.326;2023-07-20T03:55:38;21.30;58.40
51613;DHT22;37694;51.748;14.326;2023-07-20T03:58:06;21.30;58.40
51613;DHT22;37694;51.748;14.326;2023-07-20T04:00:32;21.30;58.40
51613;DHT22;37694;51.748;14.326;2023-07-20T04:02:57;21.30;58.20
51613;DHT22;37694;51.748;14.326;2023-07-20T04:05:24;21.30;58.70
51613;DHT22;37694;51.748;14.326;2023-07-20T04:07:51;21.50;58.30
51613;DHT22;37694;51.748;14.326;2023-07-20T04:10:17;21.60;57.70
51613;DHT22;37694;51.748;14.326;2023-07-20T04:12:43;21.80;57.30
51613;DHT22;37694;51.748;14.326;2023-07-20T04:15:09;21.90;56.80
51613;DHT22;37694;51.748;14.326;2023-07-20T04:17:35;22.00;56.50
51613;DHT22;37694;51.748;14.326;2023-07-20T04:20:00;22.20;56.20
51613;DHT22;37694;51.748;14.326;2023-07-20T04:22:26;22.20;55.10
51613;DHT22;37694;51.748;14.326;2023-07-20T04:24:52;22.00;54.90
51613;DHT22;37694;51.748;14.326;2023-07-20T04:27:18;21.70;54.80
51613;DHT22;37694;51.748;14.326;2023-07-20T04:29:43;21.50;55.20
51613;DHT22;37694;51.748;14.326;2023-07-20T04:32:09;21.40;55.90
51613;DHT22;37694;51.748;14.326;2023-07-20T04:34:35;21.30;56.70
51613;DHT22;37694;51.748;14.326;2023-07-20T04:37:03;21.30;57.80
51613;DHT22;37694;51.748;14.326;2023-07-20T04:39:29;21.30;57.40
51613;DHT22;37694;51.748;14.326;2023-07-20T04:41:56;21.20;58.20
51613;DHT22;37694;51.748;14.326;2023-07-20T04:44:21;21.30;58.40
51613;DHT22;37694;51.748;14.326;2023-07-20T04:46:47;21.20;58.30
51613;DHT22;37694;51.748;14.326;2023-07-20T04:49:13;21.30;58.90
51613;DHT22;37694;51.748;14.326;2023-07-20T04:51:39;21.30;58.50
51613;DHT22;37694;51.748;14.326;2023-07-20T04:54:05;21.30;58.80
51613;DHT22;37694;51.748;14.326;2023-07-20T04:56:30;21.30;59.30
51613;DHT22;37694;51.748;14.326;2023-07-20T04:58:56;21.50;59.30
51613;DHT22;37694;51.748;14.326;2023-07-20T05:01:23;21.70;58.90
51613;DHT22;37694;51.748;14.326;2023-07-20T05:03:48;21.90;58.60
51613;DHT22;37694;51.748;14.326;2023-07-20T05:06:15;22.10;58.10
51613;DHT22;37694;51.748;14.326;2023-07-20T05:08:40;22.20;58.10
51613;DHT22;37694;51.748;14.326;2023-07-20T05:11:06;22.30;57.80
51613;DHT22;37694;51.748;14.326;2023-07-20T05:13:33;22.40;57.70
51613;DHT22;37694;51.748;14.326;2023-07-20T05:15:58;22.50;58.60
51613;DHT22;37694;51.748;14.326;2023-07-20T05:18:24;22.60;57.60
51613;DHT22;37694;51.748;14.326;2023-07-20T05:20:51;22.70;57.60
51613;DHT22;37694;51.748;14.326;2023-07-20T05:23:19;22.70;57.90
51613;DHT22;37694;51.748;14.326;2023-07-20T05:25:58;22.80;57.80
51613;DHT22;37694;51.748;14.326;2023-07-20T05:28:25;22.90;57.20
51613;DHT22;37694;51.748;14.326;2023-07-20T05:30:51;23.00;57.30
51613;DHT22;37694;51.748;14.326;2023-07-20T05:33:18;23.00;57.30
51613;DHT22;37694;51.748;14.326;2023-07-20T05:35:44;23.00;57.30
51613;DHT22;37694;51.748;14.326;2023-07-20T05:38:10;23.10;57.10
51613;DHT22;37694;51.748;14.326;2023-07-20T05:40:38;23.10;57.20
51613;DHT22;37694;51.748;14.326;2023-07-20T05:43:03;23.10;57.40
51613;DHT22;37694;51.748;14.326;2023-07-20T05:45:29;23.00;57.70
51613;DHT22;37694;51.748;14.326;2023-07-20T05:47:55;23.00;57.70
51613;DHT22;37694;51.748;14.326;2023-07-20T05:50:20;22.90;57.80
51613;DHT22;37694;51.748;14.326;2023-07-20T05:52:46;22.90;57.90
51613;DHT22;37694;51.748;14.326;2023-07-20T05:55:13;22.90;57.90
51613;DHT22;37694;51.748;14.326;2023-07-20T05:57:38;22.90;57.70
51613;DHT22;37694;51.748;14.326;2023-07-20T06:00:09;22.90;57.50
51613;DHT22;37694;51.748;14.326;2023-07-20T06:02:35;23.00;57.50
51613;DHT22;37694;51.748;14.326;2023-07-20T06:05:00;23.10;57.30
51613;DHT22;37694;51.748;14.326;2023-07-20T06:07:26;23.10;57.30
51613;DHT22;37694;51.748;14.326;2023-07-20T06:09:52;23.10;57.10
51613;DHT22;37694;51.748;14.326;2023-07-20T06:12:18;23.00;57.20
51613;DHT22;37694;51.748;14.326;2023-07-20T06:14:44;23.10;57.20
51613;DHT22;37694;51.748;14.326;2023-07-20T06:17:10;23.10;57.20
51613;DHT22;37694;51.748;14.326;2023-07-20T06:19:35;23.10;57.10
51613;DHT22;37694;51.748;14.326;2023-07-20T06:22:01;23.10;56.90
51613;DHT22;37694;51.748;14.326;2023-07-20T06:24:27;23.20;56.80
51613;DHT22;37694;51.748;14.326;2023-07-20T06:26:53;23.20;56.70
51613;DHT22;37694;51.748;14.326;2023-07-20T06:29:19;23.30;56.50
51613;DHT22;37694;51.748;14.326;2023-07-20T06:31:44;23.30;56.40
51613;DHT22;37694;51.748;14.326;2023-07-20T06:34:10;23.30;56.30
51613;DHT22;37694;51.748;14.326;2023-07-20T06:36:36;23.40;56.20
51613;DHT22;37694;51.748;14.326;2023-07-20T06:39:02;23.40;56.00
51613;DHT22;37694;51.748;14.326;2023-07-20T06:41:28;23.40;55.90
51613;DHT22;37694;51.748;14.326;2023-07-20T06:43:53;23.50;55.80
51613;DHT22;37694;51.748;14.326;2023-07-20T06:46:24;23.50;55.80
51613;DHT22;37694;51.748;14.326;2023-07-20T06:48:50;23.50;55.50
51613;DHT22;37694;51.748;14.326;2023-07-20T06:51:15;23.60;55.40
51613;DHT22;37694;51.748;14.326;2023-07-20T06:53:42;23.60;55.30
51613;DHT22;37694;51.748;14.326;2023-07-20T06:56:07;23.60;55.10
51613;DHT22;37694;51.748;14.326;2023-07-20T06:58:33;23.70;55.10
51613;DHT22;37694;51.748;14.326;2023-07-20T07:00:59;23.70;55.00
51613;DHT22;37694;51.748;14.326;2023-07-20T07:03:24;23.70;54.90
51613;DHT22;37694;51.748;14.326;2023-07-20T07:05:50;23.80;54.90
51613;DHT22;37694;51.748;14.326;2023-07-20T07:08:20;23.80;54.80
51613;DHT22;37694;51.748;14.326;2023-07-20T07:10:46;23.80;54.70
51613;DHT22;37694;51.748;14.326;2023-07-20T07:13:11;23.90;54.60
51613;DHT22;37694;51.748;14.326;2023-07-20T07:15:37;23.90;54.60
51613;DHT22;37694;51.748;14.326;2023-07-20T07:18:02;23.90;54.60
51613;DHT22;37694;51.748;14.326;2023-07-20T07:20:28;24.00;54.50
51613;DHT22;37694;51.748;14.326;2023-07-20T07:22:55;24.00;54.50
51613;DHT22;37694;51.748;14.326;2023-07-20T07:25:22;24.00;54.40
51613;DHT22;37694;51.748;14.326;2023-07-20T07:27:48;24.00;54.30
51613;DHT22;37694;51.748;14.326;2023-07-20T07:30:14;24.00;54.30
51613;DHT22;37694;51.748;14.326;2023-07-20T07:32:39;24.00;54.10
51613;DHT22;37694;51.748;14.326;2023-07-20T07:35:05;24.10;54.10
51613;DHT22;37694;51.748;14.326;2023-07-20T07:37:31;24.10;54.10
51613;DHT22;37694;51.748;14.326;2023-07-20T07:39:57;24.10;54.00
51613;DHT22;37694;51.748;14.326;2023-07-20T07:42:23;24.10;53.90
51613;DHT22;37694;51.748;14.326;2023-07-20T07:44:48;24.10;53.90
51613;DHT22;37694;51.748;14.326;2023-07-20T07:47:14;24.10;53.90
51613;DHT22;37694;51.748;14.326;2023-07-20T07:49:40;24.20;53.80
51613;DHT22;37694;51.748;14.326;2023-07-20T07:52:06;24.20;53.70
51613;DHT22;37694;51.748;14.326;2023-07-20T07:54:31;24.20;53.70
51613;DHT22;37694;51.748;14.326;2023-07-20T07:56:57;24.20;53.60
51613;DHT22;37694;51.748;14.326;2023-07-20T07:59:23;24.30;53.50
51613;DHT22;37694;51.748;14.326;2023-07-20T08:01:48;24.30;53.40
51613;DHT22;37694;51.748;14.326;2023-07-20T08:04:14;24.30;53.20
51613;DHT22;37694;51.748;14.326;2023-07-20T08:06:40;24.30;53.20
51613;DHT22;37694;51.748;14.326;2023-07-20T08:09:05;24.40;53.20
51613;DHT22;37694;51.748;14.326;2023-07-20T08:11:31;24.40;53.10
51613;DHT22;37694;51.748;14.326;2023-07-20T08:14:00;24.40;53.00
51613;DHT22;37694;51.748;14.326;2023-07-20T08:16:26;24.40;53.00
51613;DHT22;37694;51.748;14.326;2023-07-20T08:18:51;24.40;52.90
51613;DHT22;37694;51.748;14.326;2023-07-20T08:21:17;24.50;52.90
51613;DHT22;37694;51.748;14.326;2023-07-20T08:23:43;24.50;52.90
51613;DHT22;37694;51.748;14.326;2023-07-20T08:26:08;24.50;52.90
51613;DHT22;37694;51.748;14.326;2023-07-20T08:28:34;24.50;52.80
51613;DHT22;37694;51.748;14.326;2023-07-20T08:31:00;24.50;52.90
51613;DHT22;37694;51.748;14.326;2023-07-20T08:33:26;24.50;52.90
51613;DHT22;37694;51.748;14.326;2023-07-20T08:35:54;24.60;53.10
51613;DHT22;37694;51.748;14.326;2023-07-20T08:38:21;24.60;53.40
51613;DHT22;37694;51.748;14.326;2023-07-20T08:40:47;24.60;53.40
51613;DHT22;37694;51.748;14.326;2023-07-20T08:43:14;24.70;53.10
51613;DHT22;37694;51.748;14.326;2023-07-20T08:45:45;24.70;53.00
51613;DHT22;37694;51.748;14.326;2023-07-20T08:48:12;24.70;52.70
51613;DHT22;37694;51.748;14.326;2023-07-20T08:50:38;24.70;52.50
51613;DHT22;37694;51.748;14.326;2023-07-20T08:53:04;24.70;52.40
51613;DHT22;37694;51.748;14.326;2023-07-20T08:55:30;24.70;52.10
51613;DHT22;37694;51.748;14.326;2023-07-20T08:57:58;24.70;52.10
51613;DHT22;37694;51.748;14.326;2023-07-20T09:00:25;24.80;52.10
51613;DHT22;37694;51.748;14.326;2023-07-20T09:02:52;24.80;51.10
51613;DHT22;37694;51.748;14.326;2023-07-20T09:05:19;24.70;50.70
51613;DHT22;37694;51.748;14.326;2023-07-20T09:07:46;24.70;51.00
51613;DHT22;37694;51.748;14.326;2023-07-20T09:10:12;24.70;50.90
51613;DHT22;37694;51.748;14.326;2023-07-20T09:12:42;24.70;50.80
51613;DHT22;37694;51.748;14.326;2023-07-20T09:15:09;24.70;50.60
51613;DHT22;37694;51.748;14.326;2023-07-20T09:17:35;24.70;50.40
51613;DHT22;37694;51.748;14.326;2023-07-20T09:20:08;24.70;50.40
51613;DHT22;37694;51.748;14.326;2023-07-20T09:22:37;24.70;50.30
51613;DHT22;37694;51.748;14.326;2023-07-20T09:25:14;24.80;50.00
51613;DHT22;37694;51.748;14.326;2023-07-20T09:30:07;24.80;49.60
51613;DHT22;37694;51.748;14.326;2023-07-20T09:35:11;24.90;49.80
51613;DHT22;37694;51.748;14.326;2023-07-20T09:37:37;24.80;49.90
51613;DHT22;37694;51.748;14.326;2023-07-20T09:40:06;24.80;49.80
51613;DHT22;37694;51.748;14.326;2023-07-20T09:42:35;24.80;49.70
51613;DHT22;37694;51.748;14.326;2023-07-20T09:45:02;24.80;49.80
51613;DHT22;37694;51.748;14.326;2023-07-20T09:47:28;24.80;50.00
51613;DHT22;37694;51.748;14.326;2023-07-20T09:50:00;24.90;50.10
51613;DHT22;37694;51.748;14.326;2023-07-20T09:52:26;24.90;49.60
51613;DHT22;37694;51.748;14.326;2023-07-20T09:54:52;24.90;49.60
51613;DHT22;37694;51.748;14.326;2023-07-20T09:57:21;24.90;49.60
51613;DHT22;37694;51.748;14.326;2023-07-20T09:59:47;24.90;49.50
51613;DHT22;37694;51.748;14.326;2023-07-20T10:02:25;25.00;49.30
51613;DHT22;37694;51.748;14.326;2023-07-20T10:04:54;25.00;49.20
51613;DHT22;37694;51.748;14.326;2023-07-20T10:07:22;25.00;49.00
51613;DHT22;37694;51.748;14.326;2023-07-20T10:09:51;25.00;48.80
51613;DHT22;37694;51.748;14.326;2023-07-20T10:12:20;25.00;48.80
51613;DHT22;37694;51.748;14.326;2023-07-20T10:14:54;25.10;48.80
51613;DHT22;37694;51.748;14.326;2023-07-20T10:17:23;25.10;48.70
51613;DHT22;37694;51.748;14.326;2023-07-20T10:19:55;25.20;48.70
51613;DHT22;37694;51.748;14.326;2023-07-20T10:22:26;25.20;48.30
51613;DHT22;37694;51.748;14.326;2023-07-20T10:24:53;25.20;48.50
51613;DHT22;37694;51.748;14.326;2023-07-20T10:27:20;25.20;47.80
51613;DHT22;37694;51.748;14.326;2023-07-20T10:29:47;25.30;47.60
51613;DHT22;37694;51.748;14.326;2023-07-20T10:32:13;25.30;47.70
51613;DHT22;37694;51.748;14.326;2023-07-20T10:34:39;25.30;47.50
51613;DHT22;37694;51.748;14.326;2023-07-20T10:37:05;25.40;47.60
51613;DHT22;37694;51.748;14.326;2023-07-20T10:39:31;25.40;47.40
51613;DHT22;37694;51.748;14.326;2023-07-20T10:44:27;25.40;46.40
51613;DHT22;37694;51.748;14.326;2023-07-20T10:47:02;25.40;46.20
51613;DHT22;37694;51.748;14.326;2023-07-20T10:49:28;25.50;46.40
51613;DHT22;37694;51.748;14.326;2023-07-20T10:51:59;25.50;46.20
51613;DHT22;37694;51.748;14.326;2023-07-20T10:56:55;25.60;45.50
51613;DHT22;37694;51.748;14.326;2023-07-20T11:01:59;25.60;45.50
51613;DHT22;37694;51.748;14.326;2023-07-20T11:04:43;25.70;45.60
51613;DHT22;37694;51.748;14.326;2023-07-20T11:07:09;25.70;45.20
51613;DHT22;37694;51.748;14.326;2023-07-20T11:09:36;25.70;45.90
51613;DHT22;37694;51.748;14.326;2023-07-20T11:12:13;25.80;46.00
51613;DHT22;37694;51.748;14.326;2023-07-20T11:14:58;25.80;45.70
51613;DHT22;37694;51.748;14.326;2023-07-20T11:17:31;25.80;45.60
51613;DHT22;37694;51.748;14.326;2023-07-20T11:19:58;25.90;45.60
51613;DHT22;37694;51.748;14.326;2023-07-20T11:22:26;25.90;45.70
51613;DHT22;37694;51.748;14.326;2023-07-20T11:24:56;25.90;45.40
51613;DHT22;37694;51.748;14.326;2023-07-20T11:27:21;26.00;45.00
51613;DHT22;37694;51.748;14.326;2023-07-20T11:29:50;26.00;45.40
51613;DHT22;37694;51.748;14.326;2023-07-20T11:32:23;26.10;45.40
51613;DHT22;37694;51.748;14.326;2023-07-20T11:34:49;26.10;45.30
51613;DHT22;37694;51.748;14.326;2023-07-20T11:37:15;26.20;45.10
51613;DHT22;37694;51.748;14.326;2023-07-20T11:39:42;26.20;45.00
51613;DHT22;37694;51.748;14.326;2023-07-20T11:42:08;26.20;44.50
51613;DHT22;37694;51.748;14.326;2023-07-20T11:44:34;26.20;44.30
51613;DHT22;37694;51.748;14.326;2023-07-20T11:47:08;26.30;44.60
51613;DHT22;37694;51.748;14.326;2023-07-20T11:49:41;26.30;44.90
51613;DHT22;37694;51.748;14.326;2023-07-20T11:52:10;26.40;44.60
51613;DHT22;37694;51.748;14.326;2023-07-20T11:54:38;26.30;44.50
51613;DHT22;37694;51.748;14.326;2023-07-20T11:57:04;26.30;44.20
51613;DHT22;37694;51.748;14.326;2023-07-20T11:59:33;26.30;43.90
51613;DHT22;37694;51.748;14.326;2023-07-20T12:02:03;26.20;43.80
51613;DHT22;37694;51.748;14.326;2023-07-20T12:04:30;26.30;43.10
51613;DHT22;37694;51.748;14.326;2023-07-20T12:06:56;26.30;43.50
51613;DHT22;37694;51.748;14.326;2023-07-20T12:09:22;26.30;43.40
51613;DHT22;37694;51.748;14.326;2023-07-20T12:11:49;26.30;43.60
51613;DHT22;37694;51.748;14.326;2023-07-20T12:14:15;26.30;43.30
51613;DHT22;37694;51.748;14.326;2023-07-20T12:16:42;26.20;43.50
51613;DHT22;37694;51.748;14.326;2023-07-20T12:19:12;26.30;43.20
51613;DHT22;37694;51.748;14.326;2023-07-20T12:21:40;26.30;42.90
51613;DHT22;37694;51.748;14.326;2023-07-20T12:24:08;26.30;42.40
51613;DHT22;37694;51.748;14.326;2023-07-20T12:26:35;26.30;42.20
51613;DHT22;37694;51.748;14.326;2023-07-20T12:29:01;26.30;42.80
51613;DHT22;37694;51.748;14.326;2023-07-20T12:31:29;26.30;42.50
51613;DHT22;37694;51.748;14.326;2023-07-20T12:33:57;26.30;42.50
51613;DHT22;37694;51.748;14.326;2023-07-20T12:36:23;26.30;42.30
51613;DHT22;37694;51.748;14.326;2023-07-20T12:38:49;26.30;42.20
51613;DHT22;37694;51.748;14.326;2023-07-20T12:41:15;26.30;43.20
51613;DHT22;37694;51.748;14.326;2023-07-20T12:43:41;26.30;42.40
51613;DHT22;37694;51.748;14.326;2023-07-20T12:46:08;26.30;42.50
51613;DHT22;37694;51.748;14.326;2023-07-20T12:48:35;26.30;42.90
51613;DHT22;37694;51.748;14.326;2023-07-20T12:51:02;26.30;42.10
51613;DHT22;37694;51.748;14.326;2023-07-20T12:53:28;26.30;42.10
51613;DHT22;37694;51.748;14.326;2023-07-20T12:55:54;26.30;42.40
51613;DHT22;37694;51.748;14.326;2023-07-20T12:58:20;26.30;42.50
51613;DHT22;37694;51.748;14.326;2023-07-20T13:00:45;26.30;42.20
51613;DHT22;37694;51.748;14.326;2023-07-20T13:03:11;26.30;41.70
51613;DHT22;37694;51.748;14.326;2023-07-20T13:05:37;26.30;41.60
51613;DHT22;37694;51.748;14.326;2023-07-20T13:08:03;26.30;41.40
51613;DHT22;37694;51.748;14.326;2023-07-20T13:10:29;26.30;41.90
51613;DHT22;37694;51.748;14.326;2023-07-20T13:12:55;26.30;41.80
51613;DHT22;37694;51.748;14.326;2023-07-20T13:15:24;26.30;41.80
51613;DHT22;37694;51.748;14.326;2023-07-20T13:17:49;26.30;41.90
51613;DHT22;37694;51.748;14.326;2023-07-20T13:20:16;26.30;41.60
51613;DHT22;37694;51.748;14.326;2023-07-20T13:22:41;26.20;41.40
51613;DHT22;37694;51.748;14.326;2023-07-20T13:25:08;26.20;42.40
51613;DHT22;37694;51.748;14.326;2023-07-20T13:27:34;26.30;41.40
51613;DHT22;37694;51.748;14.326;2023-07-20T13:30:00;26.20;41.60
51613;DHT22;37694;51.748;14.326;2023-07-20T13:32:26;26.20;41.20
51613;DHT22;37694;51.748;14.326;2023-07-20T13:34:52;26.20;41.20
51613;DHT22;37694;51.748;14.326;2023-07-20T13:37:18;26.20;41.30
51613;DHT22;37694;51.748;14.326;2023-07-20T13:39:44;26.20;41.50
51613;DHT22;37694;51.748;14.326;2023-07-20T13:42:10;26.20;41.10
51613;DHT22;37694;51.748;14.326;2023-07-20T13:44:38;26.20;41.50
51613;DHT22;37694;51.748;14.326;2023-07-20T13:47:04;26.20;41.50
51613;DHT22;37694;51.748;14.326;2023-07-20T13:49:33;26.20;41.40
51613;DHT22;37694;51.748;14.326;2023-07-20T13:51:59;26.20;41.50
51613;DHT22;37694;51.748;14.326;2023-07-20T13:54:25;26.10;41.50
51613;DHT22;37694;51.748;14.326;2023-07-20T13:56:50;26.10;41.80
51613;DHT22;37694;51.748;14.326;2023-07-20T13:59:17;26.20;41.80
51613;DHT22;37694;51.748;14.326;2023-07-20T14:01:43;26.20;42.10
51613;DHT22;37694;51.748;14.326;2023-07-20T14:04:08;26.20;41.90
51613;DHT22;37694;51.748;14.326;2023-07-20T14:06:35;26.10;41.80
51613;DHT22;37694;51.748;14.326;2023-07-20T14:09:01;26.10;42.00
51613;DHT22;37694;51.748;14.326;2023-07-20T14:11:27;26.10;41.90
51613;DHT22;37694;51.748;14.326;2023-07-20T14:13:53;26.10;42.00
51613;DHT22;37694;51.748;14.326;2023-07-20T14:16:22;26.10;41.90
51613;DHT22;37694;51.748;14.326;2023-07-20T14:18:49;26.10;41.90
51613;DHT22;37694;51.748;14.326;2023-07-20T14:21:16;26.10;41.90
51613;DHT22;37694;51.748;14.326;2023-07-20T14:23:41;26.10;41.90
51613;DHT22;37694;51.748;14.326;2023-07-20T14:26:07;26.10;41.90
51613;DHT22;37694;51.748;14.326;2023-07-20T14:28:34;26.10;41.60
51613;DHT22;37694;51.748;14.326;2023-07-20T14:31:00;25.80;41.20
51613;DHT22;37694;51.748;14.326;2023-07-20T14:33:26;25.50;41.20
51613;DHT22;37694;51.748;14.326;2023-07-20T14:35:51;25.20;43.60
51613;DHT22;37694;51.748;14.326;2023-07-20T14:38:17;25.10;45.20
51613;DHT22;37694;51.748;14.326;2023-07-20T14:40:43;25.00;46.60
51613;DHT22;37694;51.748;14.326;2023-07-20T14:43:10;25.00;46.90
51613;DHT22;37694;51.748;14.326;2023-07-20T14:45:35;24.90;47.30
51613;DHT22;37694;51.748;14.326;2023-07-20T14:48:03;24.90;47.60
51613;DHT22;37694;51.748;14.326;2023-07-20T14:50:29;24.90;48.10
51613;DHT22;37694;51.748;14.326;2023-07-20T14:52:55;24.80;48.20
51613;DHT22;37694;51.748;14.326;2023-07-20T14:55:20;24.80;48.40
51613;DHT22;37694;51.748;14.326;2023-07-20T14:57:48;24.80;48.80
51613;DHT22;37694;51.748;14.326;2023-07-20T15:00:14;24.80;49.10
51613;DHT22;37694;51.748;14.326;2023-07-20T15:02:40;24.80;49.30
51613;DHT22;37694;51.748;14.326;2023-07-20T15:05:07;24.80;49.30
51613;DHT22;37694;51.748;14.326;2023-07-20T15:07:33;24.80;49.50
51613;DHT22;37694;51.748;14.326;2023-07-20T15:10:00;24.80;49.70
51613;DHT22;37694;51.748;14.326;2023-07-20T15:12:25;24.70;49.70
51613;DHT22;37694;51.748;14.326;2023-07-20T15:15:04;24.70;49.90
51613;DHT22;37694;51.748;14.326;2023-07-20T15:17:31;24.80;50.10
51613;DHT22;37694;51.748;14.326;2023-07-20T15:19:58;24.80;50.20
51613;DHT22;37694;51.748;14.326;2023-07-20T15:22:24;24.70;50.30
51613;DHT22;37694;51.748;14.326;2023-07-20T15:24:50;24.70;50.40
51613;DHT22;37694;51.748;14.326;2023-07-20T15:27:16;24.70;50.50
51613;DHT22;37694;51.748;14.326;2023-07-20T15:29:42;24.70;50.50
51613;DHT22;37694;51.748;14.326;2023-07-20T15:32:09;24.70;50.60
51613;DHT22;37694;51.748;14.326;2023-07-20T15:34:35;24.70;50.50